createdAt,value
2023-04-15T00:01:49.783Z,25.01
2023-04-15T00:04:53.122Z,24.90
2023-04-15T00:07:57.557Z,24.82
2023-04-15T00:11:00.836Z,24.81
2023-04-15T00:14:04.037Z,24.81
2023-04-15T00:17:09.588Z,24.72
2023-04-15T00:20:13.084Z,24.63
2023-04-15T00:23:16.204Z,24.72
2023-04-15T00:26:19.453Z,24.63
2023-04-15T00:29:24.431Z,24.83
2023-04-15T00:32:27.702Z,24.32
2023-04-15T00:35:31.243Z,24.34
2023-04-15T00:38:34.427Z,24.11
2023-04-15T00:41:37.758Z,24.07
2023-04-15T00:44:40.882Z,23.95
2023-04-15T00:47:45.382Z,23.88
2023-04-15T00:50:48.527Z,23.74
2023-04-15T00:53:51.873Z,23.70
2023-04-15T00:56:55.099Z,23.67
2023-04-15T00:59:58.937Z,23.68
2023-04-15T01:03:02.617Z,23.80
2023-04-15T01:06:06.018Z,23.94
2023-04-15T01:09:09.241Z,23.65
2023-04-15T01:12:13.885Z,23.45
2023-04-15T01:15:17.180Z,23.17
2023-04-15T01:18:20.817Z,23.29
2023-04-15T01:21:24.408Z,23.20
2023-04-15T01:24:28.908Z,23.21
2023-04-15T01:27:32.374Z,23.16
2023-04-15T01:30:36.305Z,23.38
2023-04-15T01:33:40.749Z,23.33
2023-04-15T01:36:46.317Z,23.03
2023-04-15T01:39:49.575Z,23.11
2023-04-15T01:42:52.928Z,22.98
2023-04-15T01:45:56.720Z,23.03
2023-04-15T01:49:00.339Z,22.98
2023-04-15T01:52:03.654Z,22.95
2023-04-15T01:55:07.523Z,22.81
2023-04-15T01:58:10.658Z,22.67
2023-04-15T02:01:16.147Z,22.64
2023-04-15T02:04:19.405Z,22.54
2023-04-15T02:07:22.601Z,22.75
2023-04-15T02:10:26.119Z,22.62
2023-04-15T02:13:29.365Z,22.45
2023-04-15T02:16:33.648Z,22.62
2023-04-15T02:19:36.858Z,22.52
2023-04-15T02:22:40.069Z,22.59
2023-04-15T02:25:43.218Z,22.32
2023-04-15T02:28:56.859Z,22.63
2023-04-15T02:32:00.177Z,22.20
2023-04-15T02:35:07.473Z,22.24
2023-04-15T02:38:10.711Z,22.22
2023-04-15T02:41:13.948Z,22.38
2023-04-15T02:44:17.104Z,22.24
2023-04-15T02:47:20.260Z,22.15
2023-04-15T02:50:23.628Z,22.25
2023-04-15T02:53:26.884Z,22.31
2023-04-15T02:56:30.158Z,22.04
2023-04-15T02:59:33.371Z,22.03
2023-04-15T03:02:40.982Z,22.00
2023-04-15T03:05:45.304Z,22.03
2023-04-15T03:08:48.595Z,22.29
2023-04-15T03:11:51.788Z,22.18
2023-04-15T03:14:55.118Z,22.04
2023-04-15T03:17:58.265Z,22.16
2023-04-15T03:21:01.532Z,22.32
2023-04-15T03:24:04.839Z,22.27
2023-04-15T03:27:08.035Z,22.00
2023-04-15T03:30:11.852Z,22.00
2023-04-15T03:33:14.993Z,22.06
2023-04-15T03:36:18.347Z,21.81
2023-04-15T03:39:23.783Z,22.04
2023-04-15T03:42:27.076Z,21.75
2023-04-15T03:45:30.338Z,21.34
2023-04-15T03:48:33.540Z,21.16
2023-04-15T03:51:36.952Z,21.14
2023-04-15T03:54:40.200Z,21.13
2023-04-15T03:57:43.567Z,21.25
2023-04-15T04:00:46.707Z,21.29
2023-04-15T04:03:55.289Z,21.36
2023-04-15T04:06:58.678Z,21.44
2023-04-15T04:10:01.836Z,21.36
2023-04-15T04:13:05.041Z,21.06
2023-04-15T04:16:08.371Z,20.93
2023-04-15T04:19:12.143Z,20.94
2023-04-15T04:22:15.439Z,20.80
2023-04-15T04:25:20.073Z,20.87
2023-04-15T04:28:23.379Z,20.71
2023-04-15T04:31:28.884Z,20.70
2023-04-15T04:34:32.090Z,20.77
2023-04-15T04:37:35.187Z,20.81
2023-04-15T04:40:38.524Z,20.83
2023-04-15T04:43:41.699Z,20.77
2023-04-15T04:46:44.992Z,20.68
2023-04-15T04:49:49.359Z,20.60
2023-04-15T04:52:52.663Z,20.56
2023-04-15T04:55:55.796Z,20.63
2023-04-15T04:58:59.415Z,19.99
2023-04-15T05:02:02.858Z,20.00
2023-04-15T05:05:06.483Z,20.35
2023-04-15T05:08:09.681Z,20.25
2023-04-15T05:11:12.949Z,20.39
2023-04-15T05:14:16.103Z,20.11
2023-04-15T05:17:22.148Z,19.98
2023-04-15T05:20:25.392Z,19.99
2023-04-15T05:23:28.596Z,19.80
2023-04-15T05:26:31.785Z,19.76
2023-04-15T05:29:35.489Z,20.36
2023-04-15T05:32:38.738Z,20.39
2023-04-15T05:35:41.999Z,20.35
2023-04-15T05:38:45.148Z,20.03
2023-04-15T05:41:48.376Z,20.33
2023-04-15T05:44:51.535Z,20.34
2023-04-15T05:47:54.875Z,20.39
2023-04-15T05:50:58.327Z,20.52
2023-04-15T05:54:01.545Z,20.38
2023-04-15T05:57:04.844Z,20.20
2023-04-15T06:00:08.604Z,19.92
2023-04-15T06:03:12.157Z,20.17
2023-04-15T06:06:15.449Z,20.18
2023-04-15T06:09:18.697Z,20.46
2023-04-15T06:12:21.969Z,20.09
2023-04-15T06:15:25.095Z,19.94
2023-04-15T06:18:28.252Z,19.92
2023-04-15T06:21:31.580Z,20.13
2023-04-15T06:24:34.743Z,20.16
2023-04-15T06:27:37.891Z,20.41
2023-04-15T06:30:41.153Z,20.00
2023-04-15T06:33:44.315Z,19.97
2023-04-15T06:36:50.532Z,19.84
2023-04-15T06:39:55.683Z,19.43
2023-04-15T06:42:58.873Z,19.54
2023-04-15T06:46:03.036Z,19.53
2023-04-15T06:49:06.220Z,19.39
2023-04-15T06:52:09.737Z,19.54
2023-04-15T06:55:13.531Z,19.78
2023-04-15T06:58:16.769Z,19.70
2023-04-15T07:01:20.558Z,19.86
2023-04-15T07:04:23.772Z,19.76
2023-04-15T07:07:27.069Z,19.56
2023-04-15T07:10:30.250Z,19.68
2023-04-15T07:13:33.779Z,19.79
2023-04-15T07:16:36.973Z,19.79
2023-04-15T07:19:42.483Z,19.79
2023-04-15T07:22:46.713Z,19.84
2023-04-15T07:25:50.331Z,20.14
2023-04-15T07:28:53.451Z,19.69
2023-04-15T07:31:56.586Z,19.70
2023-04-15T07:34:59.756Z,19.85
2023-04-15T07:38:02.971Z,19.97
2023-04-15T07:41:06.394Z,19.57
2023-04-15T07:44:10.930Z,19.54
2023-04-15T07:47:14.201Z,19.62
2023-04-15T07:50:17.442Z,19.77
2023-04-15T07:53:20.736Z,19.53
2023-04-15T07:56:24.288Z,19.30
2023-04-15T07:59:27.595Z,19.35
2023-04-15T08:02:31.011Z,19.67
2023-04-15T08:05:35.309Z,19.71
2023-04-15T08:08:38.555Z,19.62
2023-04-15T08:11:41.810Z,19.84
2023-04-15T08:14:51.125Z,19.58
2023-04-15T08:17:54.295Z,19.57
2023-04-15T08:21:00.126Z,19.34
2023-04-15T08:24:03.398Z,19.46
2023-04-15T08:27:06.766Z,19.26
2023-04-15T08:30:12.981Z,19.33
2023-04-15T08:33:16.243Z,19.37
2023-04-15T08:36:19.444Z,19.51
2023-04-15T08:39:22.745Z,19.33
2023-04-15T08:42:31.983Z,19.34
2023-04-15T08:45:35.521Z,19.87
2023-04-15T08:48:39.654Z,19.85
2023-04-15T08:51:43.276Z,19.55
2023-04-15T08:54:46.648Z,19.74
2023-04-15T08:57:50.337Z,20.02
2023-04-15T09:00:53.564Z,19.93
2023-04-15T09:03:59.249Z,19.90
2023-04-15T09:07:02.546Z,19.75
2023-04-15T09:10:06.305Z,19.62
2023-04-15T09:13:12.518Z,19.84
2023-04-15T09:16:17.085Z,19.71
2023-04-15T09:19:24.720Z,19.68
2023-04-15T09:22:33.172Z,19.64
2023-04-15T09:25:36.349Z,19.37
2023-04-15T09:28:43.698Z,19.80
2023-04-15T09:31:47.125Z,19.76
2023-04-15T09:34:52.800Z,19.64
2023-04-15T09:38:10.229Z,19.58
2023-04-15T09:41:20.179Z,19.65
2023-04-15T09:44:28.453Z,19.68
2023-04-15T09:47:32.733Z,19.36
2023-04-15T09:50:47.001Z,19.30
2023-04-15T09:53:58.115Z,19.75
2023-04-15T09:57:06.594Z,19.89
2023-04-15T10:00:10.409Z,19.85
2023-04-15T10:03:13.976Z,19.83
2023-04-15T10:06:17.595Z,19.77
2023-04-15T10:09:20.865Z,19.54
2023-04-15T10:12:24.247Z,19.33
2023-04-15T10:15:28.944Z,19.28
2023-04-15T10:18:35.760Z,19.51
2023-04-15T10:21:38.553Z,19.62
2023-04-15T10:24:41.861Z,19.42
2023-04-15T10:27:45.272Z,19.47
2023-04-15T10:30:49.449Z,19.54
2023-04-15T10:33:56.182Z,19.43
2023-04-15T10:37:02.753Z,19.79
2023-04-15T10:40:25.124Z,20.13
2023-04-15T10:43:28.420Z,20.23
2023-04-15T10:46:39.801Z,20.09
2023-04-15T10:49:49.849Z,20.23
2023-04-15T10:52:53.341Z,19.89
2023-04-15T10:56:00.849Z,19.86
2023-04-15T10:59:06.348Z,19.76
2023-04-15T11:02:09.800Z,19.80
2023-04-15T11:05:17.182Z,19.88
2023-04-15T11:08:20.963Z,19.92
2023-04-15T11:11:24.229Z,19.76
2023-04-15T11:14:27.478Z,20.14
2023-04-15T11:17:30.776Z,20.29
2023-04-15T11:20:33.969Z,20.12
2023-04-15T11:23:39.061Z,20.01
2023-04-15T11:26:42.423Z,20.23
2023-04-15T11:29:45.752Z,20.22
2023-04-15T11:32:53.024Z,20.08
2023-04-15T11:35:56.267Z,20.05
2023-04-15T11:39:00.571Z,20.00
2023-04-15T11:42:03.859Z,20.10
2023-04-15T11:45:12.776Z,20.12
2023-04-15T11:48:18.489Z,20.19
2023-04-15T11:51:21.641Z,20.18
2023-04-15T11:54:24.777Z,20.16
2023-04-15T11:57:32.914Z,20.11
2023-04-15T12:00:37.140Z,20.10
2023-04-15T12:03:42.830Z,20.11
2023-04-15T12:06:46.375Z,20.33
2023-04-15T12:09:56.211Z,20.54
2023-04-15T12:12:59.406Z,20.44
2023-04-15T12:16:04.601Z,20.71
2023-04-15T12:19:11.573Z,20.60
2023-04-15T12:22:16.763Z,20.54
2023-04-15T12:25:19.953Z,20.97
2023-04-15T12:28:23.261Z,20.77
2023-04-15T12:31:26.446Z,20.72
2023-04-15T12:34:34.844Z,20.69
2023-04-15T12:37:38.012Z,20.55
2023-04-15T12:40:41.278Z,20.38
2023-04-15T12:43:47.603Z,20.32
2023-04-15T12:46:52.106Z,20.34
2023-04-15T12:49:55.405Z,20.50
2023-04-15T12:52:58.554Z,20.61
2023-04-15T12:56:04.072Z,20.52
2023-04-15T12:59:07.278Z,20.57
2023-04-15T13:02:10.773Z,20.62
2023-04-15T13:05:14.115Z,20.61
2023-04-15T13:08:17.257Z,20.57
2023-04-15T13:11:20.493Z,20.49
2023-04-15T13:14:23.624Z,20.56
2023-04-15T13:17:26.840Z,20.44
2023-04-15T13:20:30.034Z,20.42
2023-04-15T13:23:33.275Z,20.48
2023-04-15T13:26:36.422Z,20.58
2023-04-15T13:29:39.740Z,20.52
2023-04-15T13:32:42.930Z,20.41
2023-04-15T13:35:46.297Z,20.48
2023-04-15T13:38:51.152Z,20.59
2023-04-15T13:41:54.943Z,20.27
2023-04-15T13:44:58.053Z,20.23
2023-04-15T13:48:01.451Z,20.29
2023-04-15T13:51:04.728Z,20.20
2023-04-15T13:54:07.898Z,20.25
2023-04-15T13:57:11.067Z,20.26
2023-04-15T14:00:14.889Z,20.23
2023-04-15T14:03:18.240Z,20.15
2023-04-15T14:06:23.937Z,20.09
2023-04-15T14:09:28.097Z,20.05
2023-04-15T14:12:31.614Z,20.15
2023-04-15T14:15:43.848Z,20.21
2023-04-15T14:18:47.069Z,20.22
2023-04-15T14:21:52.238Z,20.19
2023-04-15T14:24:55.358Z,20.21
2023-04-15T14:27:58.535Z,20.18
2023-04-15T14:31:02.039Z,20.20
2023-04-15T14:34:05.545Z,20.19
2023-04-15T14:37:09.099Z,20.08
2023-04-15T14:40:15.229Z,20.06
2023-04-15T14:43:20.787Z,20.00
2023-04-15T14:46:24.183Z,19.85
2023-04-15T14:49:32.829Z,19.93
2023-04-15T14:52:35.995Z,20.05
2023-04-15T14:55:39.263Z,20.20
2023-04-15T14:58:45.029Z,20.30
2023-04-15T15:01:48.668Z,20.05
2023-04-15T15:04:52.172Z,19.88
2023-04-15T15:07:55.883Z,19.76
2023-04-15T15:10:59.022Z,19.76
2023-04-15T15:14:02.283Z,19.74
2023-04-15T15:17:05.550Z,19.76
2023-04-15T15:20:09.081Z,19.92
2023-04-15T15:23:12.251Z,19.94
2023-04-15T15:26:15.383Z,20.25
2023-04-15T15:29:18.504Z,19.91
2023-04-15T15:32:21.752Z,19.91
2023-04-15T15:35:27.233Z,19.87
2023-04-15T15:38:30.659Z,20.08
2023-04-15T15:41:36.382Z,20.04
2023-04-15T15:44:39.901Z,20.21
2023-04-15T15:47:43.534Z,20.37
2023-04-15T15:50:46.940Z,20.42
2023-04-15T15:53:50.256Z,20.52
2023-04-15T15:56:53.396Z,20.57
2023-04-15T16:00:10.194Z,20.66
2023-04-15T16:03:16.488Z,20.58
2023-04-15T16:06:19.688Z,20.50
2023-04-15T16:09:22.966Z,20.65
2023-04-15T16:12:26.407Z,20.61
2023-04-15T16:15:29.628Z,20.35
2023-04-15T16:18:35.179Z,20.21
2023-04-15T16:21:38.562Z,20.21
2023-04-15T16:24:41.794Z,20.49
2023-04-15T16:27:57.800Z,20.57
2023-04-15T16:31:04.485Z,20.56
2023-04-15T16:34:08.120Z,20.85
2023-04-15T16:37:11.226Z,21.04
2023-04-15T16:40:14.584Z,21.46
2023-04-15T16:43:17.709Z,21.56
2023-04-15T16:46:21.029Z,21.46
2023-04-15T16:49:24.246Z,21.57
2023-04-15T16:52:28.298Z,21.70
2023-04-15T16:55:31.499Z,21.80
2023-04-15T16:58:35.538Z,21.99
2023-04-15T17:01:39.090Z,22.20
2023-04-15T17:04:42.488Z,22.69
2023-04-15T17:07:45.667Z,22.45
2023-04-15T17:10:48.874Z,22.40
2023-04-15T17:13:52.165Z,22.58
2023-04-15T17:16:55.424Z,22.74
2023-04-15T17:20:00.975Z,22.84
2023-04-15T17:23:05.215Z,23.20
2023-04-15T17:26:08.372Z,22.96
2023-04-15T17:29:11.777Z,23.00
2023-04-15T17:32:15.052Z,23.20
2023-04-15T17:35:18.818Z,23.60
2023-04-15T17:38:21.993Z,23.33
2023-04-15T17:41:25.400Z,23.73
2023-04-15T17:44:28.831Z,23.77
2023-04-15T17:47:32.040Z,24.08
2023-04-15T17:50:35.278Z,24.03
2023-04-15T17:53:38.421Z,23.85
2023-04-15T17:56:41.576Z,24.49
2023-04-15T17:59:44.801Z,24.67
2023-04-15T18:02:48.525Z,24.02
2023-04-15T18:05:52.072Z,23.92
2023-04-15T18:08:55.483Z,23.88
2023-04-15T18:11:58.806Z,23.34
2023-04-15T18:15:01.953Z,23.06
2023-04-15T18:18:05.445Z,22.91
2023-04-15T18:21:08.685Z,23.41
2023-04-15T18:24:12.502Z,23.32
2023-04-15T18:27:15.896Z,23.20
2023-04-15T18:30:19.171Z,23.07
2023-04-15T18:33:22.392Z,22.85
2023-04-15T18:36:25.661Z,23.21
2023-04-15T18:39:29.614Z,23.22
2023-04-15T18:42:32.896Z,23.32
2023-04-15T18:45:36.832Z,23.56
2023-04-15T18:48:40.034Z,23.55
2023-04-15T18:51:43.423Z,23.58
2023-04-15T18:54:46.606Z,23.62
2023-04-15T18:57:49.827Z,23.65
2023-04-15T19:00:53.091Z,23.66
2023-04-15T19:03:56.289Z,23.57
2023-04-15T19:06:59.693Z,24.28
2023-04-15T19:10:04.724Z,24.46
2023-04-15T19:13:10.226Z,24.64
2023-04-15T19:16:16.356Z,24.57
2023-04-15T19:19:25.132Z,24.64
2023-04-15T19:22:30.477Z,24.21
2023-04-15T19:25:36.115Z,24.60
2023-04-15T19:28:39.358Z,24.65
2023-04-15T19:31:42.486Z,24.53
2023-04-15T19:34:45.700Z,24.84
2023-04-15T19:37:49.003Z,24.51
2023-04-15T19:40:52.137Z,24.77
2023-04-15T19:43:55.341Z,25.21
2023-04-15T19:47:00.822Z,24.99
2023-04-15T19:50:04.113Z,24.87
2023-04-15T19:53:07.266Z,25.52
2023-04-15T19:56:10.517Z,25.53
2023-04-15T19:59:13.676Z,25.28
2023-04-15T20:02:17.138Z,25.01
2023-04-15T20:05:20.395Z,25.36
2023-04-15T20:08:23.614Z,25.39
2023-04-15T20:11:26.857Z,25.12
2023-04-15T20:14:50.817Z,25.32
2023-04-15T20:17:54.075Z,25.58
2023-04-15T20:20:57.267Z,25.74
2023-04-15T20:24:00.540Z,25.43
2023-04-15T20:27:03.812Z,25.09
2023-04-15T20:30:07.749Z,25.36
2023-04-15T20:33:10.960Z,25.02
2023-04-15T20:36:14.330Z,25.48
2023-04-15T20:39:19.410Z,25.56
2023-04-15T20:42:22.594Z,25.36
2023-04-15T20:45:25.829Z,25.41
2023-04-15T20:48:29.047Z,25.30
2023-04-15T20:51:35.262Z,25.63
2023-04-15T20:54:38.370Z,25.55
2023-04-15T20:57:41.586Z,25.58
2023-04-15T21:00:44.874Z,25.46
2023-04-15T21:03:49.004Z,25.37
2023-04-15T21:06:52.377Z,25.61
2023-04-15T21:09:55.759Z,25.54
2023-04-15T21:12:58.917Z,25.31
2023-04-15T21:16:03.173Z,25.39
2023-04-15T21:19:08.819Z,25.52
2023-04-15T21:22:13.095Z,25.61
2023-04-15T21:25:16.386Z,25.34
2023-04-15T21:28:19.591Z,25.60
2023-04-15T21:31:22.963Z,25.68
2023-04-15T21:34:28.480Z,25.76
2023-04-15T21:37:32.025Z,25.69
2023-04-15T21:40:35.326Z,25.57
2023-04-15T21:43:38.742Z,25.69
2023-04-15T21:46:46.031Z,25.85
2023-04-15T21:49:50.171Z,25.15
2023-04-15T21:52:53.500Z,25.57
2023-04-15T21:55:56.911Z,25.73
2023-04-15T21:59:00.144Z,25.63
2023-04-15T22:02:03.461Z,25.32
2023-04-15T22:05:07.476Z,25.43
2023-04-15T22:08:11.198Z,25.59
2023-04-15T22:11:20.307Z,25.84
2023-04-15T22:14:23.453Z,25.86
2023-04-15T22:17:26.705Z,25.75
2023-04-15T22:20:30.067Z,25.72
2023-04-15T22:23:33.330Z,25.80
2023-04-15T22:26:36.650Z,25.46
2023-04-15T22:29:39.859Z,25.88
2023-04-15T22:32:43.067Z,25.69
2023-04-15T22:35:46.375Z,25.65
2023-04-15T22:38:49.704Z,25.68
2023-04-15T22:41:53.006Z,25.44
2023-04-15T22:44:56.206Z,25.55
2023-04-15T22:47:59.469Z,25.24
2023-04-15T22:51:05.428Z,25.12
2023-04-15T22:54:08.714Z,25.08
2023-04-15T22:57:11.946Z,24.90
2023-04-15T23:00:15.355Z,25.15
2023-04-15T23:03:18.771Z,25.11
2023-04-15T23:06:22.347Z,25.41
2023-04-15T23:09:25.956Z,25.58
2023-04-15T23:12:29.116Z,25.01
2023-04-15T23:15:32.397Z,25.26
2023-04-15T23:18:35.717Z,24.63
2023-04-15T23:21:39.130Z,24.35
2023-04-15T23:24:42.549Z,24.59
2023-04-15T23:27:45.812Z,24.27
2023-04-15T23:30:49.042Z,24.37
2023-04-15T23:33:52.193Z,24.38
2023-04-15T23:36:55.479Z,24.47
2023-04-15T23:39:58.597Z,24.61
2023-04-15T23:43:01.826Z,24.55
2023-04-15T23:46:05.124Z,24.52
2023-04-15T23:49:08.656Z,24.50
2023-04-15T23:52:12.076Z,24.37
2023-04-15T23:55:18.352Z,24.22
2023-04-15T23:58:21.564Z,24.13
